sensor_id;sensor_type;location;lat;lon;timestamp;P1;durP1;ratioP1;P2;durP2;ratioP2
7398;SDS011;3740;50.700;7.184;2023-07-29T00:01:35;2.00;;;1.80;;
7398;SDS011;3740;50.700;7.184;2023-07-29T00:04:00;4.82;;;2.42;;
7398;SDS011;3740;50.700;7.184;2023-07-29T00:06:26;2.30;;;2.10;;
7398;SDS011;3740;50.700;7.184;2023-07-29T00:08:52;2.17;;;2.00;;
7398;SDS011;3740;50.700;7.184;2023-07-29T00:11:18;2.10;;;1.90;;
7398;SDS011;3740;50.700;7.184;2023-07-29T00:13:43;2.97;;;1.83;;
7398;SDS011;3740;50.700;7.184;2023-07-29T00:16:09;2.88;;;1.77;;
7398;SDS011;3740;50.700;7.184;2023-07-29T00:18:34;2.50;;;2.30;;
7398;SDS011;3740;50.700;7.184;2023-07-29T00:21:00;2.35;;;2.15;;
7398;SDS011;3740;50.700;7.184;2023-07-29T00:23:25;3.00;;;2.70;;
7398;SDS011;3740;50.700;7.184;2023-07-29T00:25:51;3.25;;;2.92;;
7398;SDS011;3740;50.700;7.184;2023-07-29T00:28:17;3.30;;;3.10;;
7398;SDS011;3740;50.700;7.184;2023-07-29T00:30:42;3.72;;;3.28;;
7398;SDS011;3740;50.700;7.184;2023-07-29T00:33:08;3.88;;;2.95;;
7398;SDS011;3740;50.700;7.184;2023-07-29T00:35:34;2.95;;;2.50;;
7398;SDS011;3740;50.700;7.184;2023-07-29T00:38:00;5.85;;;2.38;;
7398;SDS011;3740;50.700;7.184;2023-07-29T00:40:25;3.78;;;2.50;;
7398;SDS011;3740;50.700;7.184;2023-07-29T00:42:53;3.50;;;2.83;;
7398;SDS011;3740;50.700;7.184;2023-07-29T00:45:19;3.05;;;2.70;;
7398;SDS011;3740;50.700;7.184;2023-07-29T00:47:44;3.95;;;3.28;;
7398;SDS011;3740;50.700;7.184;2023-07-29T00:50:11;3.97;;;3.55;;
7398;SDS011;3740;50.700;7.184;2023-07-29T00:52:37;3.67;;;3.15;;
7398;SDS011;3740;50.700;7.184;2023-07-29T00:55:03;4.57;;;3.40;;
7398;SDS011;3740;50.700;7.184;2023-07-29T00:57:30;3.97;;;3.67;;
7398;SDS011;3740;50.700;7.184;2023-07-29T00:59:56;3.70;;;3.40;;
7398;SDS011;3740;50.700;7.184;2023-07-29T01:02:22;5.72;;;3.67;;
7398;SDS011;3740;50.700;7.184;2023-07-29T01:04:51;3.75;;;3.50;;
7398;SDS011;3740;50.700;7.184;2023-07-29T01:07:23;4.18;;;3.78;;
7398;SDS011;3740;50.700;7.184;2023-07-29T01:09:51;4.25;;;3.78;;
7398;SDS011;3740;50.700;7.184;2023-07-29T01:12:33;3.13;;;2.92;;
7398;SDS011;3740;50.700;7.184;2023-07-29T01:17:55;4.03;;;3.10;;
7398;SDS011;3740;50.700;7.184;2023-07-29T01:20:24;3.35;;;2.97;;
7398;SDS011;3740;50.700;7.184;2023-07-29T01:22:51;3.08;;;2.75;;
7398;SDS011;3740;50.700;7.184;2023-07-29T01:25:16;2.97;;;2.78;;
7398;SDS011;3740;50.700;7.184;2023-07-29T01:27:43;3.35;;;2.33;;
7398;SDS011;3740;50.700;7.184;2023-07-29T01:30:11;2.97;;;2.22;;
7398;SDS011;3740;50.700;7.184;2023-07-29T01:32:43;2.95;;;2.55;;
7398;SDS011;3740;50.700;7.184;2023-07-29T01:35:33;3.13;;;2.78;;
7398;SDS011;3740;50.700;7.184;2023-07-29T01:38:18;2.90;;;2.55;;
7398;SDS011;3740;50.700;7.184;2023-07-29T01:40:45;2.75;;;2.63;;
7398;SDS011;3740;50.700;7.184;2023-07-29T01:43:13;3.38;;;2.80;;
7398;SDS011;3740;50.700;7.184;2023-07-29T01:45:39;2.60;;;2.40;;
7398;SDS011;3740;50.700;7.184;2023-07-29T01:48:05;4.60;;;3.00;;
7398;SDS011;3740;50.700;7.184;2023-07-29T01:50:32;3.65;;;2.97;;
7398;SDS011;3740;50.700;7.184;2023-07-29T01:52:58;2.78;;;2.58;;
7398;SDS011;3740;50.700;7.184;2023-07-29T01:55:24;2.88;;;2.60;;
7398;SDS011;3740;50.700;7.184;2023-07-29T01:57:49;3.50;;;2.70;;
7398;SDS011;3740;50.700;7.184;2023-07-29T02:00:16;2.78;;;2.58;;
7398;SDS011;3740;50.700;7.184;2023-07-29T02:02:42;2.47;;;2.38;;
7398;SDS011;3740;50.700;7.184;2023-07-29T02:05:08;4.22;;;3.13;;
7398;SDS011;3740;50.700;7.184;2023-07-29T02:07:33;2.92;;;2.72;;
7398;SDS011;3740;50.700;7.184;2023-07-29T02:09:59;3.20;;;2.70;;
7398;SDS011;3740;50.700;7.184;2023-07-29T02:12:25;2.95;;;2.47;;
7398;SDS011;3740;50.700;7.184;2023-07-29T02:14:50;3.28;;;2.75;;
7398;SDS011;3740;50.700;7.184;2023-07-29T02:17:16;3.42;;;3.13;;
7398;SDS011;3740;50.700;7.184;2023-07-29T02:19:42;4.40;;;3.40;;
7398;SDS011;3740;50.700;7.184;2023-07-29T02:22:07;3.90;;;3.42;;
7398;SDS011;3740;50.700;7.184;2023-07-29T02:24:33;4.93;;;3.85;;
7398;SDS011;3740;50.700;7.184;2023-07-29T02:26:58;4.00;;;3.58;;
7398;SDS011;3740;50.700;7.184;2023-07-29T02:29:24;3.67;;;3.38;;
7398;SDS011;3740;50.700;7.184;2023-07-29T02:31:50;3.70;;;3.40;;
7398;SDS011;3740;50.700;7.184;2023-07-29T02:34:16;3.60;;;3.25;;
7398;SDS011;3740;50.700;7.184;2023-07-29T02:36:41;3.72;;;3.42;;
7398;SDS011;3740;50.700;7.184;2023-07-29T02:39:07;3.67;;;3.38;;
7398;SDS011;3740;50.700;7.184;2023-07-29T02:41:32;3.40;;;3.20;;
7398;SDS011;3740;50.700;7.184;2023-07-29T02:43:58;4.10;;;3.70;;
7398;SDS011;3740;50.700;7.184;2023-07-29T02:46:24;4.32;;;3.70;;
7398;SDS011;3740;50.700;7.184;2023-07-29T02:48:50;3.70;;;3.40;;
7398;SDS011;3740;50.700;7.184;2023-07-29T02:51:15;4.25;;;3.35;;
7398;SDS011;3740;50.700;7.184;2023-07-29T02:53:41;5.05;;;3.45;;
7398;SDS011;3740;50.700;7.184;2023-07-29T02:56:07;5.97;;;3.70;;
7398;SDS011;3740;50.700;7.184;2023-07-29T02:58:34;4.30;;;3.35;;
7398;SDS011;3740;50.700;7.184;2023-07-29T03:01:01;3.80;;;3.47;;
7398;SDS011;3740;50.700;7.184;2023-07-29T03:03:30;3.72;;;3.42;;
7398;SDS011;3740;50.700;7.184;2023-07-29T03:05:57;4.70;;;3.65;;
7398;SDS011;3740;50.700;7.184;2023-07-29T03:08:31;4.13;;;3.72;;
7398;SDS011;3740;50.700;7.184;2023-07-29T03:10:57;3.60;;;3.40;;
7398;SDS011;3740;50.700;7.184;2023-07-29T03:13:22;4.88;;;3.40;;
7398;SDS011;3740;50.700;7.184;2023-07-29T03:15:48;4.38;;;3.45;;
7398;SDS011;3740;50.700;7.184;2023-07-29T03:18:14;3.72;;;3.40;;
7398;SDS011;3740;50.700;7.184;2023-07-29T03:20:40;3.97;;;3.67;;
7398;SDS011;3740;50.700;7.184;2023-07-29T03:23:06;3.50;;;3.17;;
7398;SDS011;3740;50.700;7.184;2023-07-29T03:25:32;5.05;;;3.92;;
7398;SDS011;3740;50.700;7.184;2023-07-29T03:27:58;4.57;;;4.05;;
7398;SDS011;3740;50.700;7.184;2023-07-29T03:30:23;5.85;;;4.15;;
7398;SDS011;3740;50.700;7.184;2023-07-29T03:32:49;9.25;;;4.70;;
7398;SDS011;3740;50.700;7.184;2023-07-29T03:35:15;3.83;;;3.42;;
7398;SDS011;3740;50.700;7.184;2023-07-29T03:37:41;3.67;;;2.92;;
7398;SDS011;3740;50.700;7.184;2023-07-29T03:40:07;3.50;;;2.70;;
7398;SDS011;3740;50.700;7.184;2023-07-29T03:42:34;2.85;;;2.10;;
7398;SDS011;3740;50.700;7.184;2023-07-29T03:45:00;3.38;;;2.38;;
7398;SDS011;3740;50.700;7.184;2023-07-29T03:47:26;4.05;;;1.95;;
7398;SDS011;3740;50.700;7.184;2023-07-29T03:49:52;3.97;;;2.13;;
7398;SDS011;3740;50.700;7.184;2023-07-29T03:52:18;2.10;;;2.00;;
7398;SDS011;3740;50.700;7.184;2023-07-29T03:54:43;4.10;;;1.92;;
7398;SDS011;3740;50.700;7.184;2023-07-29T03:57:09;2.47;;;2.00;;
7398;SDS011;3740;50.700;7.184;2023-07-29T03:59:34;2.25;;;1.80;;
7398;SDS011;3740;50.700;7.184;2023-07-29T04:02:00;2.05;;;1.95;;
7398;SDS011;3740;50.700;7.184;2023-07-29T04:04:25;2.40;;;2.20;;
7398;SDS011;3740;50.700;7.184;2023-07-29T04:06:51;2.03;;;1.92;;
7398;SDS011;3740;50.700;7.184;2023-07-29T04:09:17;2.10;;;1.90;;
7398;SDS011;3740;50.700;7.184;2023-07-29T04:11:42;1.92;;;1.83;;
7398;SDS011;3740;50.700;7.184;2023-07-29T04:14:08;3.13;;;2.05;;
7398;SDS011;3740;50.700;7.184;2023-07-29T04:16:34;2.67;;;2.47;;
7398;SDS011;3740;50.700;7.184;2023-07-29T04:18:59;2.42;;;2.28;;
7398;SDS011;3740;50.700;7.184;2023-07-29T04:21:25;3.40;;;2.33;;
7398;SDS011;3740;50.700;7.184;2023-07-29T04:23:51;2.03;;;1.83;;
7398;SDS011;3740;50.700;7.184;2023-07-29T04:26:17;2.47;;;2.15;;
7398;SDS011;3740;50.700;7.184;2023-07-29T04:28:42;2.15;;;2.05;;
7398;SDS011;3740;50.700;7.184;2023-07-29T04:31:08;2.15;;;1.98;;
7398;SDS011;3740;50.700;7.184;2023-07-29T04:33:33;2.13;;;1.92;;
7398;SDS011;3740;50.700;7.184;2023-07-29T04:35:59;2.00;;;1.90;;
7398;SDS011;3740;50.700;7.184;2023-07-29T04:38:30;2.60;;;2.20;;
7398;SDS011;3740;50.700;7.184;2023-07-29T04:41:00;2.80;;;2.33;;
7398;SDS011;3740;50.700;7.184;2023-07-29T04:43:27;2.47;;;2.30;;
7398;SDS011;3740;50.700;7.184;2023-07-29T04:45:53;2.60;;;2.40;;
7398;SDS011;3740;50.700;7.184;2023-07-29T04:48:19;2.25;;;2.05;;
7398;SDS011;3740;50.700;7.184;2023-07-29T04:50:45;2.95;;;2.28;;
7398;SDS011;3740;50.700;7.184;2023-07-29T04:53:10;2.30;;;2.10;;
7398;SDS011;3740;50.700;7.184;2023-07-29T04:55:36;2.10;;;2.00;;
7398;SDS011;3740;50.700;7.184;2023-07-29T04:58:02;2.38;;;2.28;;
7398;SDS011;3740;50.700;7.184;2023-07-29T05:00:27;2.20;;;2.10;;
7398;SDS011;3740;50.700;7.184;2023-07-29T05:02:53;2.55;;;2.40;;
7398;SDS011;3740;50.700;7.184;2023-07-29T05:05:18;3.33;;;2.03;;
7398;SDS011;3740;50.700;7.184;2023-07-29T05:07:44;2.40;;;2.30;;
7398;SDS011;3740;50.700;7.184;2023-07-29T05:10:09;2.67;;;2.47;;
7398;SDS011;3740;50.700;7.184;2023-07-29T05:12:36;2.70;;;2.38;;
7398;SDS011;3740;50.700;7.184;2023-07-29T05:15:01;2.90;;;2.50;;
7398;SDS011;3740;50.700;7.184;2023-07-29T05:17:27;3.25;;;2.55;;
7398;SDS011;3740;50.700;7.184;2023-07-29T05:19:53;2.63;;;2.40;;
7398;SDS011;3740;50.700;7.184;2023-07-29T05:22:18;2.35;;;2.25;;
7398;SDS011;3740;50.700;7.184;2023-07-29T05:24:44;2.42;;;2.33;;
7398;SDS011;3740;50.700;7.184;2023-07-29T05:27:09;2.70;;;2.50;;
7398;SDS011;3740;50.700;7.184;2023-07-29T05:29:35;2.40;;;2.30;;
7398;SDS011;3740;50.700;7.184;2023-07-29T05:32:01;2.70;;;2.50;;
7398;SDS011;3740;50.700;7.184;2023-07-29T05:34:26;2.88;;;2.67;;
7398;SDS011;3740;50.700;7.184;2023-07-29T05:36:52;2.40;;;2.28;;
7398;SDS011;3740;50.700;7.184;2023-07-29T05:39:17;2.63;;;2.42;;
7398;SDS011;3740;50.700;7.184;2023-07-29T05:41:43;2.50;;;2.40;;
7398;SDS011;3740;50.700;7.184;2023-07-29T05:44:08;2.80;;;2.60;;
7398;SDS011;3740;50.700;7.184;2023-07-29T05:46:34;2.50;;;2.30;;
7398;SDS011;3740;50.700;7.184;2023-07-29T05:48:59;2.78;;;2.40;;
7398;SDS011;3740;50.700;7.184;2023-07-29T05:51:25;2.60;;;2.40;;
7398;SDS011;3740;50.700;7.184;2023-07-29T05:53:50;2.58;;;2.45;;
7398;SDS011;3740;50.700;7.184;2023-07-29T05:56:16;2.90;;;2.70;;
7398;SDS011;3740;50.700;7.184;2023-07-29T05:58:42;2.90;;;2.70;;
7398;SDS011;3740;50.700;7.184;2023-07-29T06:01:07;2.45;;;2.33;;
7398;SDS011;3740;50.700;7.184;2023-07-29T06:03:33;2.58;;;2.47;;
7398;SDS011;3740;50.700;7.184;2023-07-29T06:05:58;2.83;;;2.63;;
7398;SDS011;3740;50.700;7.184;2023-07-29T06:08:24;3.30;;;3.00;;
7398;SDS011;3740;50.700;7.184;2023-07-29T06:10:49;2.65;;;2.45;;
7398;SDS011;3740;50.700;7.184;2023-07-29T06:13:15;2.80;;;2.60;;
7398;SDS011;3740;50.700;7.184;2023-07-29T06:15:40;2.65;;;2.45;;
7398;SDS011;3740;50.700;7.184;2023-07-29T06:18:06;3.05;;;2.70;;
7398;SDS011;3740;50.700;7.184;2023-07-29T06:20:31;2.60;;;2.50;;
7398;SDS011;3740;50.700;7.184;2023-07-29T06:22:57;3.05;;;2.80;;
7398;SDS011;3740;50.700;7.184;2023-07-29T06:25:23;2.50;;;2.30;;
7398;SDS011;3740;50.700;7.184;2023-07-29T06:27:48;2.58;;;2.38;;
7398;SDS011;3740;50.700;7.184;2023-07-29T06:30:14;3.10;;;2.70;;
7398;SDS011;3740;50.700;7.184;2023-07-29T06:32:39;2.90;;;2.70;;
7398;SDS011;3740;50.700;7.184;2023-07-29T06:35:05;3.00;;;2.80;;
7398;SDS011;3740;50.700;7.184;2023-07-29T06:37:31;3.22;;;2.92;;
7398;SDS011;3740;50.700;7.184;2023-07-29T06:39:58;3.30;;;3.03;;
7398;SDS011;3740;50.700;7.184;2023-07-29T06:42:23;2.90;;;2.70;;
7398;SDS011;3740;50.700;7.184;2023-07-29T06:44:49;2.85;;;2.60;;
7398;SDS011;3740;50.700;7.184;2023-07-29T06:47:14;3.00;;;2.80;;
7398;SDS011;3740;50.700;7.184;2023-07-29T06:49:40;3.08;;;2.80;;
7398;SDS011;3740;50.700;7.184;2023-07-29T06:52:06;2.47;;;2.38;;
7398;SDS011;3740;50.700;7.184;2023-07-29T06:54:31;3.30;;;3.10;;
7398;SDS011;3740;50.700;7.184;2023-07-29T06:56:57;2.65;;;2.47;;
7398;SDS011;3740;50.700;7.184;2023-07-29T06:59:22;2.95;;;2.75;;
7398;SDS011;3740;50.700;7.184;2023-07-29T07:01:49;3.15;;;2.95;;
7398;SDS011;3740;50.700;7.184;2023-07-29T07:04:15;2.88;;;2.67;;
7398;SDS011;3740;50.700;7.184;2023-07-29T07:06:40;2.97;;;2.78;;
7398;SDS011;3740;50.700;7.184;2023-07-29T07:09:06;2.65;;;2.50;;
7398;SDS011;3740;50.700;7.184;2023-07-29T07:11:31;3.10;;;2.80;;
7398;SDS011;3740;50.700;7.184;2023-07-29T07:13:57;2.80;;;2.60;;
7398;SDS011;3740;50.700;7.184;2023-07-29T07:16:23;2.88;;;2.67;;
7398;SDS011;3740;50.700;7.184;2023-07-29T07:18:48;2.70;;;2.50;;
7398;SDS011;3740;50.700;7.184;2023-07-29T07:21:14;2.97;;;2.78;;
7398;SDS011;3740;50.700;7.184;2023-07-29T07:23:39;3.40;;;3.10;;
7398;SDS011;3740;50.700;7.184;2023-07-29T07:26:05;3.00;;;2.80;;
7398;SDS011;3740;50.700;7.184;2023-07-29T07:28:30;3.45;;;3.25;;
7398;SDS011;3740;50.700;7.184;2023-07-29T07:30:56;3.70;;;3.40;;
7398;SDS011;3740;50.700;7.184;2023-07-29T07:33:22;3.75;;;3.45;;
7398;SDS011;3740;50.700;7.184;2023-07-29T07:35:47;3.70;;;3.40;;
7398;SDS011;3740;50.700;7.184;2023-07-29T07:38:13;3.20;;;3.00;;
7398;SDS011;3740;50.700;7.184;2023-07-29T07:40:38;3.97;;;3.67;;
7398;SDS011;3740;50.700;7.184;2023-07-29T07:43:04;4.07;;;3.45;;
7398;SDS011;3740;50.700;7.184;2023-07-29T07:45:31;3.47;;;3.28;;
7398;SDS011;3740;50.700;7.184;2023-07-29T07:47:57;3.83;;;3.60;;
7398;SDS011;3740;50.700;7.184;2023-07-29T07:50:23;3.72;;;3.35;;
7398;SDS011;3740;50.700;7.184;2023-07-29T07:52:49;3.42;;;3.20;;
7398;SDS011;3740;50.700;7.184;2023-07-29T07:55:15;4.28;;;3.92;;
7398;SDS011;3740;50.700;7.184;2023-07-29T07:57:40;4.00;;;3.70;;
7398;SDS011;3740;50.700;7.184;2023-07-29T08:00:06;4.18;;;3.70;;
7398;SDS011;3740;50.700;7.184;2023-07-29T08:02:32;3.58;;;3.28;;
7398;SDS011;3740;50.700;7.184;2023-07-29T08:04:57;3.67;;;3.38;;
7398;SDS011;3740;50.700;7.184;2023-07-29T08:07:23;3.83;;;3.53;;
7398;SDS011;3740;50.700;7.184;2023-07-29T08:09:49;3.30;;;3.10;;
7398;SDS011;3740;50.700;7.184;2023-07-29T08:12:14;3.45;;;3.15;;
7398;SDS011;3740;50.700;7.184;2023-07-29T08:14:40;3.50;;;3.20;;
7398;SDS011;3740;50.700;7.184;2023-07-29T08:17:05;4.10;;;3.30;;
7398;SDS011;3740;50.700;7.184;2023-07-29T08:19:31;4.10;;;3.58;;
7398;SDS011;3740;50.700;7.184;2023-07-29T08:21:57;3.10;;;2.90;;
7398;SDS011;3740;50.700;7.184;2023-07-29T08:24:22;6.88;;;3.90;;
7398;SDS011;3740;50.700;7.184;2023-07-29T08:26:48;3.30;;;3.00;;
7398;SDS011;3740;50.700;7.184;2023-07-29T08:29:13;3.60;;;3.30;;
7398;SDS011;3740;50.700;7.184;2023-07-29T08:31:39;3.20;;;3.00;;
7398;SDS011;3740;50.700;7.184;2023-07-29T08:34:04;3.50;;;3.25;;
7398;SDS011;3740;50.700;7.184;2023-07-29T08:36:30;3.40;;;3.10;;
7398;SDS011;3740;50.700;7.184;2023-07-29T08:38:55;3.20;;;3.00;;
7398;SDS011;3740;50.700;7.184;2023-07-29T08:44:30;3.67;;;3.38;;
7398;SDS011;3740;50.700;7.184;2023-07-29T08:46:59;3.70;;;3.40;;
7398;SDS011;3740;50.700;7.184;2023-07-29T08:49:26;3.20;;;2.90;;
7398;SDS011;3740;50.700;7.184;2023-07-29T08:51:53;4.03;;;3.30;;
7398;SDS011;3740;50.700;7.184;2023-07-29T08:54:19;3.17;;;2.97;;
7398;SDS011;3740;50.700;7.184;2023-07-29T08:56:45;2.88;;;2.78;;
7398;SDS011;3740;50.700;7.184;2023-07-29T08:59:11;3.58;;;3.38;;
7398;SDS011;3740;50.700;7.184;2023-07-29T09:01:38;3.08;;;2.88;;
7398;SDS011;3740;50.700;7.184;2023-07-29T09:04:04;3.17;;;2.97;;
7398;SDS011;3740;50.700;7.184;2023-07-29T09:06:30;3.30;;;3.00;;
7398;SDS011;3740;50.700;7.184;2023-07-29T09:08:56;2.72;;;2.53;;
7398;SDS011;3740;50.700;7.184;2023-07-29T09:11:23;2.80;;;2.60;;
7398;SDS011;3740;50.700;7.184;2023-07-29T09:13:49;2.90;;;2.70;;
7398;SDS011;3740;50.700;7.184;2023-07-29T09:16:15;3.05;;;2.80;;
7398;SDS011;3740;50.700;7.184;2023-07-29T09:18:41;2.78;;;2.63;;
7398;SDS011;3740;50.700;7.184;2023-07-29T09:21:06;3.10;;;2.83;;
7398;SDS011;3740;50.700;7.184;2023-07-29T09:23:42;2.60;;;2.50;;
7398;SDS011;3740;50.700;7.184;2023-07-29T09:26:08;2.90;;;2.70;;
7398;SDS011;3740;50.700;7.184;2023-07-29T09:28:35;2.72;;;2.53;;
7398;SDS011;3740;50.700;7.184;2023-07-29T09:31:02;2.78;;;2.58;;
7398;SDS011;3740;50.700;7.184;2023-07-29T09:33:36;3.08;;;2.83;;
7398;SDS011;3740;50.700;7.184;2023-07-29T09:36:11;3.08;;;2.88;;
7398;SDS011;3740;50.700;7.184;2023-07-29T09:38:37;3.22;;;2.60;;
7398;SDS011;3740;50.700;7.184;2023-07-29T09:41:03;3.10;;;2.90;;
7398;SDS011;3740;50.700;7.184;2023-07-29T09:43:29;3.05;;;2.80;;
7398;SDS011;3740;50.700;7.184;2023-07-29T09:45:59;2.80;;;2.60;;
7398;SDS011;3740;50.700;7.184;2023-07-29T09:48:26;2.60;;;2.40;;
7398;SDS011;3740;50.700;7.184;2023-07-29T09:50:53;2.53;;;2.33;;
7398;SDS011;3740;50.700;7.184;2023-07-29T09:53:19;2.70;;;2.50;;
7398;SDS011;3740;50.700;7.184;2023-07-29T09:55:46;2.95;;;2.47;;
7398;SDS011;3740;50.700;7.184;2023-07-29T09:58:22;2.90;;;2.60;;
7398;SDS011;3740;50.700;7.184;2023-07-29T10:00:53;2.67;;;2.47;;
7398;SDS011;3740;50.700;7.184;2023-07-29T10:03:18;2.63;;;2.42;;
7398;SDS011;3740;50.700;7.184;2023-07-29T10:05:46;2.47;;;2.25;;
7398;SDS011;3740;50.700;7.184;2023-07-29T10:08:12;3.58;;;2.40;;
7398;SDS011;3740;50.700;7.184;2023-07-29T10:10:38;2.65;;;2.45;;
7398;SDS011;3740;50.700;7.184;2023-07-29T10:13:07;2.00;;;1.90;;
7398;SDS011;3740;50.700;7.184;2023-07-29T10:15:32;3.80;;;2.67;;
7398;SDS011;3740;50.700;7.184;2023-07-29T10:17:58;3.67;;;2.80;;
7398;SDS011;3740;50.700;7.184;2023-07-29T10:20:24;2.38;;;2.20;;
7398;SDS011;3740;50.700;7.184;2023-07-29T10:22:50;2.15;;;1.98;;
7398;SDS011;3740;50.700;7.184;2023-07-29T10:25:21;2.40;;;2.20;;
7398;SDS011;3740;50.700;7.184;2023-07-29T10:27:49;2.17;;;2.08;;
7398;SDS011;3740;50.700;7.184;2023-07-29T10:30:14;2.70;;;2.50;;
7398;SDS011;3740;50.700;7.184;2023-07-29T10:32:43;2.63;;;2.28;;
7398;SDS011;3740;50.700;7.184;2023-07-29T10:35:13;2.53;;;2.40;;
7398;SDS011;3740;50.700;7.184;2023-07-29T10:37:40;2.63;;;2.42;;
7398;SDS011;3740;50.700;7.184;2023-07-29T10:40:07;2.20;;;2.10;;
7398;SDS011;3740;50.700;7.184;2023-07-29T10:42:35;2.60;;;2.45;;
7398;SDS011;3740;50.700;7.184;2023-07-29T10:45:19;2.50;;;2.30;;
7398;SDS011;3740;50.700;7.184;2023-07-29T10:47:46;2.60;;;2.40;;
7398;SDS011;3740;50.700;7.184;2023-07-29T10:50:19;2.30;;;2.20;;
7398;SDS011;3740;50.700;7.184;2023-07-29T10:52:48;2.90;;;2.70;;
7398;SDS011;3740;50.700;7.184;2023-07-29T10:55:33;2.60;;;2.50;;
7398;SDS011;3740;50.700;7.184;2023-07-29T10:58:13;3.22;;;2.92;;
7398;SDS011;3740;50.700;7.184;2023-07-29T11:00:42;3.47;;;2.80;;
7398;SDS011;3740;50.700;7.184;2023-07-29T11:03:11;3.13;;;2.92;;
7398;SDS011;3740;50.700;7.184;2023-07-29T11:05:46;3.53;;;3.22;;
7398;SDS011;3740;50.700;7.184;2023-07-29T11:08:29;3.10;;;2.80;;
7398;SDS011;3740;50.700;7.184;2023-07-29T11:10:59;3.28;;;2.97;;
7398;SDS011;3740;50.700;7.184;2023-07-29T11:13:30;3.63;;;2.90;;
7398;SDS011;3740;50.700;7.184;2023-07-29T11:15:58;2.88;;;2.67;;
7398;SDS011;3740;50.700;7.184;2023-07-29T11:18:26;2.38;;;2.28;;
7398;SDS011;3740;50.700;7.184;2023-07-29T11:20:53;3.13;;;2.85;;
7398;SDS011;3740;50.700;7.184;2023-07-29T11:23:20;2.88;;;2.63;;
7398;SDS011;3740;50.700;7.184;2023-07-29T11:25:55;2.67;;;2.47;;
7398;SDS011;3740;50.700;7.184;2023-07-29T11:28:21;3.10;;;2.80;;
7398;SDS011;3740;50.700;7.184;2023-07-29T11:30:47;2.80;;;2.60;;
7398;SDS011;3740;50.700;7.184;2023-07-29T11:33:17;3.10;;;2.90;;
7398;SDS011;3740;50.700;7.184;2023-07-29T11:35:44;2.55;;;2.35;;
7398;SDS011;3740;50.700;7.184;2023-07-29T11:38:14;2.90;;;2.60;;
7398;SDS011;3740;50.700;7.184;2023-07-29T11:40:53;2.55;;;2.45;;
7398;SDS011;3740;50.700;7.184;2023-07-29T11:43:23;2.65;;;2.42;;
7398;SDS011;3740;50.700;7.184;2023-07-29T11:45:49;2.70;;;2.42;;
7398;SDS011;3740;50.700;7.184;2023-07-29T11:48:15;3.55;;;2.63;;
7398;SDS011;3740;50.700;7.184;2023-07-29T11:50:41;2.80;;;2.58;;
7398;SDS011;3740;50.700;7.184;2023-07-29T11:53:07;2.92;;;2.60;;
7398;SDS011;3740;50.700;7.184;2023-07-29T11:55:33;2.45;;;2.30;;
7398;SDS011;3740;50.700;7.184;2023-07-29T11:57:59;2.53;;;2.33;;
7398;SDS011;3740;50.700;7.184;2023-07-29T12:00:26;2.80;;;2.60;;
7398;SDS011;3740;50.700;7.184;2023-07-29T12:02:52;2.45;;;2.25;;
7398;SDS011;3740;50.700;7.184;2023-07-29T12:05:18;2.30;;;2.10;;
7398;SDS011;3740;50.700;7.184;2023-07-29T12:07:47;2.05;;;1.85;;
7398;SDS011;3740;50.700;7.184;2023-07-29T12:10:12;2.40;;;2.20;;
7398;SDS011;3740;50.700;7.184;2023-07-29T12:12:48;1.70;;;1.60;;
7398;SDS011;3740;50.700;7.184;2023-07-29T12:15:24;1.85;;;1.67;;
7398;SDS011;3740;50.700;7.184;2023-07-29T12:17:54;1.63;;;1.52;;
7398;SDS011;3740;50.700;7.184;2023-07-29T12:20:21;2.03;;;1.83;;
7398;SDS011;3740;50.700;7.184;2023-07-29T12:22:51;1.73;;;1.63;;
7398;SDS011;3740;50.700;7.184;2023-07-29T12:25:17;1.83;;;1.73;;
7398;SDS011;3740;50.700;7.184;2023-07-29T12:27:43;1.45;;;1.35;;
7398;SDS011;3740;50.700;7.184;2023-07-29T12:30:09;1.88;;;1.77;;
7398;SDS011;3740;50.700;7.184;2023-07-29T12:32:45;1.60;;;1.50;;
7398;SDS011;3740;50.700;7.184;2023-07-29T12:35:11;1.67;;;1.60;;
7398;SDS011;3740;50.700;7.184;2023-07-29T12:37:37;1.50;;;1.40;;
7398;SDS011;3740;50.700;7.184;2023-07-29T12:40:04;1.40;;;1.30;;
7398;SDS011;3740;50.700;7.184;2023-07-29T12:42:30;1.67;;;1.58;;
7398;SDS011;3740;50.700;7.184;2023-07-29T12:44:55;1.80;;;1.70;;
7398;SDS011;3740;50.700;7.184;2023-07-29T12:47:21;1.70;;;1.58;;
7398;SDS011;3740;50.700;7.184;2023-07-29T12:49:46;1.60;;;1.50;;
7398;SDS011;3740;50.700;7.184;2023-07-29T12:52:12;1.67;;;1.58;;
7398;SDS011;3740;50.700;7.184;2023-07-29T12:54:38;1.40;;;1.30;;
7398;SDS011;3740;50.700;7.184;2023-07-29T12:57:05;1.67;;;1.58;;
7398;SDS011;3740;50.700;7.184;2023-07-29T12:59:31;1.48;;;1.38;;
7398;SDS011;3740;50.700;7.184;2023-07-29T13:01:57;1.40;;;1.40;;
7398;SDS011;3740;50.700;7.184;2023-07-29T13:04:22;1.52;;;1.42;;
7398;SDS011;3740;50.700;7.184;2023-07-29T13:06:48;2.08;;;1.80;;
7398;SDS011;3740;50.700;7.184;2023-07-29T13:09:13;2.00;;;1.90;;
7398;SDS011;3740;50.700;7.184;2023-07-29T13:11:39;1.67;;;1.58;;
7398;SDS011;3740;50.700;7.184;2023-07-29T13:14:04;1.60;;;1.52;;
7398;SDS011;3740;50.700;7.184;2023-07-29T13:16:30;2.17;;;1.75;;
7398;SDS011;3740;50.700;7.184;2023-07-29T13:18:56;2.05;;;1.80;;
7398;SDS011;3740;50.700;7.184;2023-07-29T13:21:22;1.63;;;1.58;;
7398;SDS011;3740;50.700;7.184;2023-07-29T13:23:47;1.88;;;1.60;;
7398;SDS011;3740;50.700;7.184;2023-07-29T13:26:13;1.73;;;1.73;;
7398;SDS011;3740;50.700;7.184;2023-07-29T13:28:38;1.73;;;1.63;;
7398;SDS011;3740;50.700;7.184;2023-07-29T13:31:04;1.45;;;1.42;;
7398;SDS011;3740;50.700;7.184;2023-07-29T13:33:29;1.90;;;1.70;;
7398;SDS011;3740;50.700;7.184;2023-07-29T13:35:59;1.67;;;1.58;;
7398;SDS011;3740;50.700;7.184;2023-07-29T13:38:25;1.70;;;1.60;;
7398;SDS011;3740;50.700;7.184;2023-07-29T13:40:50;1.80;;;1.70;;
7398;SDS011;3740;50.700;7.184;2023-07-29T13:43:16;2.08;;;1.98;;
7398;SDS011;3740;50.700;7.184;2023-07-29T13:45:41;2.10;;;1.85;;
7398;SDS011;3740;50.700;7.184;2023-07-29T13:48:07;2.00;;;1.90;;
7398;SDS011;3740;50.700;7.184;2023-07-29T13:50:32;2.00;;;1.90;;
7398;SDS011;3740;50.700;7.184;2023-07-29T13:52:58;1.92;;;1.83;;
7398;SDS011;3740;50.700;7.184;2023-07-29T13:55:24;2.20;;;2.00;;
7398;SDS011;3740;50.700;7.184;2023-07-29T13:57:49;2.15;;;2.05;;
7398;SDS011;3740;50.700;7.184;2023-07-29T14:00:15;2.30;;;2.10;;
7398;SDS011;3740;50.700;7.184;2023-07-29T14:02:41;2.05;;;1.95;;
7398;SDS011;3740;50.700;7.184;2023-07-29T14:05:07;2.45;;;2.08;;
7398;SDS011;3740;50.700;7.184;2023-07-29T14:07:33;1.95;;;1.85;;
7398;SDS011;3740;50.700;7.184;2023-07-29T14:09:58;2.47;;;2.10;;
7398;SDS011;3740;50.700;7.184;2023-07-29T14:12:24;2.17;;;1.90;;
7398;SDS011;3740;50.700;7.184;2023-07-29T14:14:50;3.65;;;2.30;;
7398;SDS011;3740;50.700;7.184;2023-07-29T14:17:15;4.13;;;2.83;;
7398;SDS011;3740;50.700;7.184;2023-07-29T14:19:41;2.88;;;2.50;;
7398;SDS011;3740;50.700;7.184;2023-07-29T14:22:06;2.92;;;2.72;;
7398;SDS011;3740;50.700;7.184;2023-07-29T14:24:32;2.50;;;2.30;;
7398;SDS011;3740;50.700;7.184;2023-07-29T14:26:57;2.40;;;2.25;;
7398;SDS011;3740;50.700;7.184;2023-07-29T14:29:23;2.70;;;2.50;;
7398;SDS011;3740;50.700;7.184;2023-07-29T14:31:48;2.15;;;2.05;;
7398;SDS011;3740;50.700;7.184;2023-07-29T14:34:14;2.00;;;1.90;;
7398;SDS011;3740;50.700;7.184;2023-07-29T14:36:39;2.47;;;2.28;;
7398;SDS011;3740;50.700;7.184;2023-07-29T14:39:05;2.45;;;2.13;;
7398;SDS011;3740;50.700;7.184;2023-07-29T14:41:31;2.00;;;1.90;;
7398;SDS011;3740;50.700;7.184;2023-07-29T14:43:56;2.08;;;1.98;;
7398;SDS011;3740;50.700;7.184;2023-07-29T14:46:22;2.30;;;2.20;;
7398;SDS011;3740;50.700;7.184;2023-07-29T14:48:47;2.20;;;2.08;;
7398;SDS011;3740;50.700;7.184;2023-07-29T14:51:13;2.25;;;2.15;;
7398;SDS011;3740;50.700;7.184;2023-07-29T14:53:39;2.75;;;2.55;;
7398;SDS011;3740;50.700;7.184;2023-07-29T14:56:05;2.40;;;2.22;;
7398;SDS011;3740;50.700;7.184;2023-07-29T14:58:30;2.20;;;2.10;;
7398;SDS011;3740;50.700;7.184;2023-07-29T15:00:56;2.30;;;2.20;;
7398;SDS011;3740;50.700;7.184;2023-07-29T15:03:21;2.97;;;2.67;;
7398;SDS011;3740;50.700;7.184;2023-07-29T15:05:48;2.50;;;2.30;;
7398;SDS011;3740;50.700;7.184;2023-07-29T15:08:14;2.30;;;2.20;;
7398;SDS011;3740;50.700;7.184;2023-07-29T15:10:40;2.50;;;2.40;;
7398;SDS011;3740;50.700;7.184;2023-07-29T15:13:06;2.30;;;2.20;;
7398;SDS011;3740;50.700;7.184;2023-07-29T15:15:31;2.78;;;2.58;;
7398;SDS011;3740;50.700;7.184;2023-07-29T15:17:57;2.50;;;2.30;;